Time;durP1;ratioP1;P1;durP2;ratioP2;P2;SDS_P1;SDS_P2;PMS_P1;PMS_P2;Temp;Humidity;BMP_temperature;BMP_pressure;BME280_temperature;BME280_humidity;BME280_pressure;Samples;Min_cycle;Max_cycle;Signal;HPM_P1;HPM_P2
2023/06/30 00:02:14;;;;;;;10.43;5.80;;;25.40;68.20;;;;;;4940418;29;20035;-83
2023/06/30 00:04:40;;;;;;;11.17;5.57;;;25.30;68.50;;;;;;4941277;29;20027;-83
2023/06/30 00:07:09;;;;;;;7.73;5.20;;;25.20;68.60;;;;;;4940954;29;20027;-83
2023/06/30 00:09:35;;;;;;;5.75;4.57;;;25.30;68.60;;;;;;4957110;29;20042;-83
2023/06/30 00:12:01;;;;;;;7.97;5.07;;;25.40;68.50;;;;;;4924975;29;20504;-83
2023/06/30 00:14:27;;;;;;;7.10;5.27;;;25.40;68.40;;;;;;4958105;28;20089;-83
2023/06/30 00:16:56;;;;;;;7.20;5.20;;;25.50;68.30;;;;;;4941471;29;20031;-83
2023/06/30 00:19:25;;;;;;;15.10;5.28;;;25.40;68.30;;;;;;4944228;29;20522;-83
2023/06/30 00:21:52;;;;;;;11.65;5.38;;;25.40;68.70;;;;;;4929247;29;20035;-83
2023/06/30 00:24:21;;;;;;;8.45;5.57;;;25.40;68.70;;;;;;4945158;29;20050;-83
2023/06/30 00:26:47;;;;;;;6.90;5.28;;;25.40;68.70;;;;;;4945853;29;20428;-83
2023/06/30 00:29:13;;;;;;;8.97;5.17;;;25.40;68.50;;;;;;4945403;29;20023;-83
2023/06/30 00:31:39;;;;;;;7.07;5.27;;;25.40;68.60;;;;;;4945674;29;20406;-83
2023/06/30 00:34:05;;;;;;;8.50;4.83;;;25.40;68.50;;;;;;4945513;29;20382;-83
2023/06/30 00:36:34;;;;;;;6.47;5.10;;;25.50;68.40;;;;;;4962074;29;20404;-83
2023/06/30 00:39:00;;;;;;;6.72;5.38;;;25.50;68.70;;;;;;4929087;29;20293;-83
2023/06/30 00:41:29;;;;;;;10.80;5.50;;;25.50;68.80;;;;;;4945060;29;20031;-83
2023/06/30 00:43:55;;;;;;;7.95;5.95;;;25.40;69.00;;;;;;4944745;29;20031;-83
2023/06/30 00:46:28;;;;;;;8.77;5.90;;;25.40;69.00;;;;;;4944871;29;20136;-84
2023/06/30 00:48:59;;;;;;;12.45;5.65;;;25.40;69.20;;;;;;4945350;29;20030;-83
2023/06/30 00:51:25;;;;;;;9.85;5.78;;;25.40;69.00;;;;;;4961254;29;20023;-83
2023/06/30 00:53:51;;;;;;;8.17;6.07;;;25.40;69.00;;;;;;4939719;29;20042;-83
2023/06/30 00:56:18;;;;;;;;;;;25.40;69.10;;;;;;4954805;28;20624;-83
2023/06/30 00:58:44;;;;;;;7.10;6.30;;;25.30;69.40;;;;;;4954470;28;19906;-83
2023/06/30 01:01:39;;;;;;;10.57;6.87;;;25.40;69.50;;;;;;4922915;29;20374;-83
2023/06/30 01:04:44;;;;;;;7.85;5.90;;;25.40;69.50;;;;;;4930727;29;20051;-83
2023/06/30 01:07:22;;;;;;;8.75;6.53;;;25.40;70.20;;;;;;4937655;29;20047;-83
2023/06/30 01:09:57;;;;;;;9.85;6.65;;;25.40;70.10;;;;;;4956078;29;20070;-83
2023/06/30 01:12:23;;;;;;;7.55;5.63;;;25.40;70.30;;;;;;4937432;28;20042;-83
2023/06/30 01:14:50;;;;;;;10.00;7.15;;;25.30;70.30;;;;;;4974985;28;20027;-83
2023/06/30 01:17:24;;;;;;;8.60;6.50;;;25.40;70.70;;;;;;4957486;28;20061;-83
2023/06/30 01:19:56;;;;;;;6.55;5.35;;;25.30;70.50;;;;;;4973218;28;20046;-83
2023/06/30 01:22:52;;;;;;;9.00;5.53;;;25.30;70.70;;;;;;4957417;28;20045;-83
2023/06/30 01:25:25;;;;;;;6.00;5.10;;;25.20;70.60;;;;;;4958816;28;20031;-82
2023/06/30 01:27:52;;;;;;;12.05;6.32;;;25.20;71.00;;;;;;4921504;29;20565;-82
2023/06/30 01:30:19;;;;;;;9.18;5.70;;;25.10;70.90;;;;;;4937206;29;20118;-82
2023/06/30 01:32:46;;;;;;;;;;;25.10;71.10;;;;;;4937844;29;20046;-84
2023/06/30 01:35:12;;;;;;;10.20;6.30;;;25.10;71.60;;;;;;4937100;29;20019;-84
2023/06/30 01:37:38;;;;;;;9.20;5.35;;;25.10;71.40;;;;;;4953272;28;20038;-83
2023/06/30 01:40:07;;;;;;;7.90;6.07;;;25.00;71.60;;;;;;4937122;29;20028;-83
2023/06/30 01:42:37;;;;;;;8.70;6.82;;;25.10;71.60;;;;;;4937352;29;20050;-84
2023/06/30 01:45:09;;;;;;;11.90;6.55;;;25.10;71.70;;;;;;4937849;29;20042;-83
2023/06/30 01:47:36;;;;;;;7.35;6.43;;;25.10;72.00;;;;;;4928563;28;20075;-83
2023/06/30 01:50:02;;;;;;;10.85;6.43;;;25.20;71.60;;;;;;4920615;29;20032;-84
2023/06/30 01:52:32;;;;;;;11.07;5.97;;;25.20;71.30;;;;;;4953947;29;20031;-83
2023/06/30 01:54:58;;;;;;;7.63;6.93;;;25.20;71.90;;;;;;4936661;29;20028;-85
2023/06/30 01:57:24;;;;;;;11.20;7.47;;;25.20;73.10;;;;;;4936797;28;20491;-83
2023/06/30 01:59:50;;;;;;;9.83;6.83;;;25.20;73.80;;;;;;4936649;29;20038;-83
2023/06/30 02:02:16;;;;;;;12.53;6.90;;;25.20;73.00;;;;;;4921387;29;20035;-84
2023/06/30 02:04:42;;;;;;;7.60;6.50;;;25.10;72.50;;;;;;4939488;28;20459;-83
2023/06/30 02:07:11;;;;;;;9.07;6.85;;;25.10;72.70;;;;;;4941205;28;20034;-83
2023/06/30 02:09:41;;;;;;;7.68;6.50;;;25.10;73.10;;;;;;4963548;28;20392;-84
2023/06/30 02:12:07;;;;;;;7.72;6.93;;;25.00;74.00;;;;;;4937668;29;20400;-83
2023/06/30 02:14:32;;;;;;;9.07;8.17;;;25.00;74.70;;;;;;4954247;29;20031;-83
2023/06/30 02:16:58;;;;;;;9.93;7.73;;;25.00;74.90;;;;;;4953376;29;20039;-85
2023/06/30 02:19:24;;;;;;;7.77;6.97;;;25.00;75.00;;;;;;4937301;29;20031;-83
2023/06/30 02:21:53;;;;;;;15.93;7.93;;;24.90;75.60;;;;;;4946703;28;20026;-85
2023/06/30 02:24:19;;;;;;;8.40;7.45;;;24.90;76.10;;;;;;4974684;28;20403;-83
2023/06/30 02:26:45;;;;;;;13.13;7.47;;;24.90;76.10;;;;;;4921261;29;20488;-83
2023/06/30 02:29:11;;;;;;;13.88;7.45;;;24.90;75.80;;;;;;4936930;29;20497;-84
2023/06/30 02:31:40;;;;;;;12.75;8.40;;;24.90;76.10;;;;;;4920754;29;20039;-83
2023/06/30 02:34:10;;;;;;;9.73;6.97;;;24.80;75.90;;;;;;4937218;29;20397;-84
2023/06/30 02:36:36;;;;;;;9.45;7.63;;;24.90;75.70;;;;;;4938221;29;20114;-84
2023/06/30 02:39:02;;;;;;;8.00;7.20;;;24.80;75.30;;;;;;4940184;29;20167;-83
2023/06/30 02:41:31;;;;;;;11.93;7.93;;;24.80;75.50;;;;;;4940951;29;20102;-83
2023/06/30 02:43:57;;;;;;;8.38;6.63;;;24.80;75.70;;;;;;4957498;29;20076;-84
2023/06/30 02:46:23;;;;;;;8.90;8.00;;;24.80;76.00;;;;;;4924346;29;20059;-84
2023/06/30 02:48:50;;;;;;;12.43;7.20;;;24.80;75.40;;;;;;4939877;29;20031;-83
2023/06/30 02:51:16;;;;;;;13.53;7.87;;;24.80;75.20;;;;;;4940229;29;20504;-83
2023/06/30 02:53:42;;;;;;;13.32;7.75;;;24.80;75.50;;;;;;4940343;29;20570;-83
2023/06/30 02:56:08;;;;;;;11.48;7.97;;;24.70;76.30;;;;;;4924319;29;20058;-83
2023/06/30 02:58:39;;;;;;;13.80;9.00;;;24.70;76.80;;;;;;4941340;29;20031;-84
2023/06/30 03:01:05;;;;;;;10.77;7.53;;;24.60;76.40;;;;;;4941456;29;20038;-85
2023/06/30 03:03:38;;;;;;;10.38;9.20;;;24.40;77.80;;;;;;4941630;29;20031;-84
2023/06/30 03:06:05;;;;;;;11.60;8.23;;;24.40;79.60;;;;;;4916086;29;20027;-84
2023/06/30 03:08:34;;;;;;;8.93;8.07;;;24.40;80.00;;;;;;4923782;29;20027;-84
2023/06/30 03:11:00;;;;;;;13.10;8.07;;;24.40;80.90;;;;;;4928255;29;20031;-84
2023/06/30 03:13:26;;;;;;;12.13;8.53;;;24.40;80.50;;;;;;4926650;29;20031;-84
2023/06/30 03:15:52;;;;;;;11.85;8.35;;;24.30;80.70;;;;;;4922477;29;20027;-84
2023/06/30 03:18:18;;;;;;;9.37;8.47;;;24.30;81.60;;;;;;4942228;29;20038;-84
2023/06/30 03:20:44;;;;;;;9.98;8.95;;;24.20;82.40;;;;;;4943652;29;20511;-84
2023/06/30 03:23:13;;;;;;;13.33;9.43;;;24.30;82.60;;;;;;4941824;29;20031;-84
2023/06/30 03:25:39;;;;;;;14.88;10.00;;;24.20;82.90;;;;;;4956868;29;20790;-84
2023/06/30 03:28:05;;;;;;;12.97;10.93;;;24.30;83.90;;;;;;4927870;29;20031;-83
2023/06/30 03:30:31;;;;;;;13.23;9.70;;;24.30;84.50;;;;;;4944075;29;20118;-85
2023/06/30 03:32:57;;;;;;;16.67;8.90;;;24.20;84.80;;;;;;4944255;29;20330;-83
2023/06/30 03:35:26;;;;;;;11.53;10.30;;;24.20;84.20;;;;;;4944409;29;20035;-82
2023/06/30 03:37:52;;;;;;;14.68;9.68;;;24.20;84.30;;;;;;4942313;29;20027;-82
2023/06/30 03:40:18;;;;;;;13.27;9.55;;;24.10;84.40;;;;;;4939006;29;20386;-83
2023/06/30 03:42:44;;;;;;;11.47;10.33;;;24.10;84.40;;;;;;4957491;28;20067;-84
2023/06/30 03:45:10;;;;;;;10.27;9.23;;;24.20;84.40;;;;;;4958557;23;20042;-79
2023/06/30 03:47:37;;;;;;;12.95;10.27;;;24.20;84.30;;;;;;4945509;28;20032;-78
2023/06/30 03:50:11;;;;;;;13.07;10.48;;;24.10;84.40;;;;;;4935137;29;20027;-79
2023/06/30 03:52:38;;;;;;;29.48;11.45;;;24.10;83.90;;;;;;4954164;29;20032;-78
2023/06/30 03:55:07;;;;;;;13.88;10.88;;;24.10;83.80;;;;;;4942630;28;20535;-78
2023/06/30 03:57:33;;;;;;;13.52;10.35;;;24.10;84.30;;;;;;4968849;28;20081;-77
2023/06/30 03:59:59;;;;;;;12.93;10.57;;;24.00;84.90;;;;;;4939246;29;20090;-77
2023/06/30 04:02:31;;;;;;;15.20;11.40;;;23.90;85.60;;;;;;4956561;29;20041;-77
2023/06/30 04:04:56;;;;;;;12.85;10.40;;;23.90;86.00;;;;;;4938979;29;20184;-77
2023/06/30 04:07:22;;;;;;;12.17;10.37;;;23.90;85.70;;;;;;4938838;29;20072;-77
2023/06/30 04:09:48;;;;;;;14.17;11.23;;;23.90;85.60;;;;;;4956037;29;20034;-77
2023/06/30 04:12:14;;;;;;;12.80;10.50;;;24.00;84.70;;;;;;4952306;28;20482;-77
2023/06/30 04:14:40;;;;;;;14.77;10.53;;;24.00;84.50;;;;;;4974357;28;20023;-77
2023/06/30 04:17:09;;;;;;;12.37;11.10;;;24.10;84.00;;;;;;4957927;28;20483;-77
2023/06/30 04:19:35;;;;;;;11.68;10.35;;;24.10;84.20;;;;;;4975901;28;20054;-77
2023/06/30 04:22:00;;;;;;;17.47;10.93;;;24.10;83.40;;;;;;4974367;28;20026;-77
2023/06/30 04:24:26;;;;;;;13.63;11.50;;;24.00;83.00;;;;;;4975363;28;20031;-77
2023/06/30 04:26:52;;;;;;;13.30;11.07;;;24.10;83.40;;;;;;4976337;28;20027;-77
2023/06/30 04:29:18;;;;;;;14.23;11.53;;;24.10;83.70;;;;;;4958296;28;20031;-81
2023/06/30 04:31:47;;;;;;;14.30;10.83;;;24.10;83.20;;;;;;4975896;28;20031;-81
2023/06/30 04:34:21;;;;;;;12.65;11.15;;;24.10;82.70;;;;;;4941075;28;20035;-82
2023/06/30 04:36:49;;;;;;;18.27;12.15;;;24.10;83.00;;;;;;4957008;28;20491;-81
2023/06/30 04:39:15;;;;;;;17.45;11.88;;;24.10;83.10;;;;;;4941129;28;20126;-81
2023/06/30 04:41:42;;;;;;;15.32;11.75;;;24.30;83.60;;;;;;4974399;28;20029;-81
2023/06/30 04:44:08;;;;;;;16.30;12.55;;;24.30;83.40;;;;;;4975051;28;20073;-81
2023/06/30 04:46:33;;;;;;;13.57;12.17;;;24.50;83.50;;;;;;4956862;28;20034;-83
2023/06/30 04:49:00;;;;;;;14.57;11.17;;;24.50;83.60;;;;;;4940946;28;20031;-82
2023/06/30 04:51:26;;;;;;;16.90;10.60;;;24.50;84.00;;;;;;4956838;28;20035;-82
2023/06/30 04:53:53;;;;;;;14.67;12.23;;;24.60;83.90;;;;;;4974169;28;20022;-83
2023/06/30 04:56:19;;;;;;;27.77;13.98;;;24.60;84.40;;;;;;4956707;28;20115;-81
2023/06/30 04:58:45;;;;;;;16.48;11.75;;;24.60;84.70;;;;;;4956343;28;20042;-82
2023/06/30 05:01:11;;;;;;;18.52;11.30;;;24.60;84.80;;;;;;4974028;28;20057;-82
2023/06/30 05:03:37;;;;;;;13.43;11.53;;;24.60;85.10;;;;;;4973898;28;20492;-81
2023/06/30 05:06:06;;;;;;;16.23;10.40;;;24.60;84.40;;;;;;4956515;28;20031;-82
2023/06/30 05:08:32;;;;;;;10.15;8.23;;;24.60;82.70;;;;;;4941017;28;20038;-81
2023/06/30 05:10:58;;;;;;;11.10;8.80;;;24.60;81.80;;;;;;4973914;28;20030;-82
2023/06/30 05:13:26;;;;;;;14.73;9.03;;;24.70;81.10;;;;;;4974072;28;20093;-82
2023/06/30 05:15:53;;;;;;;17.77;9.27;;;24.70;80.50;;;;;;4956307;28;20027;-82
2023/06/30 05:18:22;;;;;;;16.50;9.25;;;24.80;79.70;;;;;;4956345;28;20455;-81
2023/06/30 05:20:48;;;;;;;9.40;7.45;;;24.90;78.20;;;;;;4956326;28;20035;-81
2023/06/30 05:23:13;;;;;;;10.33;7.67;;;24.90;76.90;;;;;;4956346;28;20023;-81
2023/06/30 05:25:42;;;;;;;17.97;7.67;;;25.00;76.00;;;;;;4973605;28;20037;-80
2023/06/30 05:28:08;;;;;;;11.25;8.07;;;25.10;75.20;;;;;;4974004;28;20031;-82
2023/06/30 05:30:34;;;;;;;13.50;7.23;;;25.10;75.30;;;;;;4973950;28;20038;-83
2023/06/30 05:33:00;;;;;;;9.20;7.20;;;25.10;73.90;;;;;;4956316;28;20118;-80
2023/06/30 05:35:26;;;;;;;9.77;6.30;;;25.10;73.70;;;;;;4956893;28;20391;-81
2023/06/30 05:37:52;;;;;;;10.23;6.17;;;25.20;72.40;;;;;;4973942;28;20030;-83
2023/06/30 05:40:21;;;;;;;9.23;6.13;;;25.20;71.80;;;;;;4957507;28;20265;-83
2023/06/30 05:42:49;;;;;;;15.98;6.90;;;25.20;69.60;;;;;;4956659;28;20534;-82
2023/06/30 05:45:15;;;;;;;8.55;6.13;;;25.20;69.20;;;;;;4956164;28;20027;-82
2023/06/30 05:47:41;;;;;;;11.03;6.20;;;25.20;69.00;;;;;;4978370;28;20610;-83
2023/06/30 05:50:10;;;;;;;12.00;5.93;;;25.20;68.50;;;;;;4940740;28;20026;-77
2023/06/30 05:52:37;;;;;;;9.27;5.90;;;25.10;68.20;;;;;;4956037;28;20399;-78
2023/06/30 05:55:11;;;;;;;13.15;5.72;;;25.00;68.70;;;;;;4957110;28;20034;-77
2023/06/30 05:57:37;;;;;;;14.13;6.15;;;24.90;68.70;;;;;;4975438;28;20034;-78
2023/06/30 06:00:10;;;;;;;8.43;5.17;;;24.90;68.40;;;;;;4975631;28;20069;-78
2023/06/30 06:02:41;;;;;;;8.30;5.20;;;24.90;68.80;;;;;;4957225;28;20129;-78
2023/06/30 06:05:07;;;;;;;17.17;6.40;;;24.90;68.60;;;;;;4973316;28;20077;-83
2023/06/30 06:07:34;;;;;;;10.20;5.88;;;24.90;68.10;;;;;;4956711;28;20027;-83
2023/06/30 06:10:00;;;;;;;9.38;4.93;;;24.90;67.70;;;;;;4973273;28;20031;-82
2023/06/30 06:12:26;;;;;;;7.97;5.13;;;24.90;66.80;;;;;;4959191;28;20092;-82
2023/06/30 06:14:52;;;;;;;13.93;6.57;;;25.10;66.70;;;;;;4960694;28;20030;-83
2023/06/30 06:17:18;;;;;;;9.97;4.87;;;25.20;66.20;;;;;;4960094;28;20030;-81
2023/06/30 06:19:47;;;;;;;8.10;4.73;;;25.40;65.40;;;;;;4944635;28;20030;-81
2023/06/30 06:22:12;;;;;;;13.02;5.93;;;25.50;65.10;;;;;;4977822;28;20030;-81
2023/06/30 06:24:38;;;;;;;48.53;35.57;;;25.70;64.70;;;;;;4977580;28;20030;-83
2023/06/30 06:27:07;;;;;;;12.83;5.27;;;25.80;65.00;;;;;;4959679;28;20514;-77
2023/06/30 06:29:33;;;;;;;9.63;5.45;;;25.80;63.60;;;;;;4979935;28;20484;-77
2023/06/30 06:31:59;;;;;;;11.27;5.80;;;25.80;63.90;;;;;;4962797;28;20065;-77
2023/06/30 06:34:25;;;;;;;11.25;6.13;;;25.90;63.50;;;;;;4961473;28;20085;-77
2023/06/30 06:36:51;;;;;;;12.35;5.65;;;25.90;63.60;;;;;;4962426;28;20043;-77
2023/06/30 06:39:18;;;;;;;10.63;5.30;;;25.90;63.10;;;;;;4978909;28;20534;-78
2023/06/30 06:41:44;;;;;;;7.65;4.80;;;25.90;63.60;;;;;;4951999;29;20039;-80
2023/06/30 06:44:15;;;;;;;7.88;4.80;;;25.90;62.20;;;;;;4941873;29;20058;-78
2023/06/30 06:46:43;;;;;;;10.20;4.33;;;25.90;61.50;;;;;;4959143;29;20062;-78
2023/06/30 06:49:09;;;;;;;10.20;4.65;;;25.90;61.00;;;;;;4941806;29;20103;-79
2023/06/30 06:51:35;;;;;;;11.57;6.15;;;25.80;61.40;;;;;;4958680;29;20027;-78
2023/06/30 06:54:01;;;;;;;9.77;5.43;;;25.80;61.80;;;;;;4941843;29;20642;-78
2023/06/30 06:56:27;;;;;;;14.50;5.37;;;25.90;62.00;;;;;;4924904;29;20495;-78
2023/06/30 06:58:53;;;;;;;8.63;4.60;;;26.00;62.30;;;;;;4957894;29;20270;-81
2023/06/30 07:01:18;;;;;;;7.73;4.27;;;26.10;63.10;;;;;;4942037;29;20039;-79
2023/06/30 07:03:44;;;;;;;9.13;5.30;;;26.10;61.90;;;;;;4957592;29;20391;-78
2023/06/30 07:06:10;;;;;;;9.50;5.25;;;26.10;62.10;;;;;;4957419;29;20024;-79
2023/06/30 07:08:37;;;;;;;12.43;4.43;;;26.10;62.80;;;;;;4956593;29;20024;-78
2023/06/30 07:11:04;;;;;;;9.95;4.40;;;26.10;63.20;;;;;;4957790;29;20491;-78
2023/06/30 07:13:30;;;;;;;11.52;4.75;;;26.10;63.10;;;;;;4957965;29;20129;-77
2023/06/30 07:15:56;;;;;;;6.68;4.32;;;26.10;63.40;;;;;;4958468;29;20067;-77
2023/06/30 07:18:22;;;;;;;12.00;4.30;;;26.20;63.50;;;;;;4956947;29;20035;-77
2023/06/30 07:20:52;;;;;;;12.80;4.70;;;26.20;62.80;;;;;;4925383;29;20584;-77
2023/06/30 07:23:21;;;;;;;10.90;5.30;;;26.30;62.70;;;;;;4958479;28;19924;-77
2023/06/30 07:25:48;;;;;;;10.68;5.07;;;26.30;62.30;;;;;;4956660;29;20486;-77
2023/06/30 07:28:13;;;;;;;;;;;26.40;62.50;;;;;;4958946;29;20027;-77
2023/06/30 07:30:43;;;;;;;8.23;4.38;;;26.40;61.50;;;;;;4941220;29;20198;-77
2023/06/30 07:33:10;;;;;;;9.25;4.82;;;26.50;60.80;;;;;;4958490;29;20102;-77
2023/06/30 07:35:37;;;;;;;9.60;4.15;;;26.60;61.00;;;;;;4940752;29;20082;-77
2023/06/30 07:38:03;;;;;;;8.80;3.95;;;26.60;60.90;;;;;;4958048;29;20027;-77
2023/06/30 07:40:28;;;;;;;7.90;4.33;;;26.80;61.20;;;;;;4958004;29;20023;-78
2023/06/30 07:42:54;;;;;;;5.90;4.13;;;26.90;59.70;;;;;;4940737;29;20062;-78
2023/06/30 07:45:20;;;;;;;6.73;3.60;;;26.90;59.60;;;;;;4956238;29;20675;-78
2023/06/30 07:47:47;;;;;;;10.67;4.50;;;27.00;58.60;;;;;;4957556;29;20027;-78
2023/06/30 07:50:15;;;;;;;9.05;3.47;;;27.00;58.50;;;;;;4957640;29;20031;-78
2023/06/30 07:52:43;;;;;;;11.32;3.72;;;27.20;58.90;;;;;;4940499;29;20031;-78
2023/06/30 07:55:13;;;;;;;11.45;4.00;;;27.40;57.60;;;;;;4940460;29;20095;-78
2023/06/30 07:57:39;;;;;;;6.32;4.32;;;27.50;57.30;;;;;;4958498;29;20039;-78
2023/06/30 08:00:06;;;;;;;8.02;4.18;;;27.60;57.20;;;;;;4957665;29;20042;-78
2023/06/30 08:02:38;;;;;;;10.30;3.50;;;27.60;57.50;;;;;;4957987;29;20476;-78
2023/06/30 08:05:07;;;;;;;8.50;3.50;;;27.70;56.70;;;;;;4940557;29;20035;-78
2023/06/30 08:07:33;;;;;;;12.23;4.57;;;27.80;55.70;;;;;;4940716;29;20027;-78
2023/06/30 08:09:59;;;;;;;5.80;3.70;;;27.90;55.50;;;;;;4940284;29;20058;-78
2023/06/30 08:12:25;;;;;;;9.38;4.07;;;28.10;55.90;;;;;;4956437;29;20120;-78
2023/06/30 08:14:52;;;;;;;9.43;4.07;;;28.20;56.10;;;;;;4957530;29;20083;-78
2023/06/30 08:17:18;;;;;;;;;;;28.40;55.90;;;;;;4958111;29;20634;-78
2023/06/30 08:19:44;;;;;;;10.45;3.97;;;28.50;55.10;;;;;;4958316;29;19910;-80
2023/06/30 08:22:13;;;;;;;7.45;3.65;;;28.60;55.30;;;;;;4962610;29;20031;-82
2023/06/30 08:24:43;;;;;;;10.07;3.40;;;28.60;54.50;;;;;;4963030;29;20102;-80
2023/06/30 08:27:12;;;;;;;9.38;3.83;;;28.60;54.40;;;;;;4962834;29;20041;-80
2023/06/30 08:29:38;;;;;;;13.23;3.42;;;28.60;54.70;;;;;;4956856;29;20036;-78
2023/06/30 08:32:07;;;;;;;8.97;3.40;;;28.60;54.50;;;;;;4956013;29;20046;-78
2023/06/30 08:34:36;;;;;;;5.43;2.92;;;28.60;53.60;;;;;;4956948;28;20031;-78
2023/06/30 08:37:06;;;;;;;6.63;3.92;;;28.60;54.40;;;;;;4940383;29;20043;-78
2023/06/30 08:39:31;;;;;;;5.88;2.88;;;28.50;53.00;;;;;;4955560;29;20038;-78
2023/06/30 08:41:59;;;;;;;7.53;3.33;;;28.40;53.00;;;;;;4956376;29;20039;-78
2023/06/30 08:44:29;;;;;;;6.25;3.95;;;28.30;53.10;;;;;;4956766;29;20275;-78
2023/06/30 08:46:57;;;;;;;10.60;3.10;;;28.20;53.50;;;;;;4955265;29;20027;-78
2023/06/30 08:49:24;;;;;;;6.10;3.70;;;28.10;54.00;;;;;;4957041;29;20392;-78
2023/06/30 08:51:58;;;;;;;7.88;3.00;;;28.20;54.70;;;;;;4956482;29;20047;-78
2023/06/30 08:54:24;;;;;;;3.78;2.72;;;28.20;54.30;;;;;;4956763;29;20035;-78
2023/06/30 08:56:50;;;;;;;10.25;3.30;;;28.10;55.00;;;;;;4955524;29;20023;-78
2023/06/30 08:59:16;;;;;;;11.55;3.47;;;28.10;54.50;;;;;;4956904;29;20392;-78
2023/06/30 09:01:45;;;;;;;10.90;3.67;;;28.10;54.60;;;;;;4956927;29;20042;-78
2023/06/30 09:04:17;;;;;;;12.20;3.47;;;27.90;54.00;;;;;;4956538;29;20027;-78
2023/06/30 09:06:49;;;;;;;5.38;3.30;;;27.80;54.00;;;;;;4939312;29;20035;-78
2023/06/30 09:09:41;;;;;;;10.88;4.10;;;27.70;55.00;;;;;;4956046;29;20496;-78
2023/06/30 09:12:09;;;;;;;10.32;3.47;;;27.70;55.00;;;;;;4954903;29;20412;-78
2023/06/30 09:14:38;;;;;;;19.38;3.47;;;27.60;55.90;;;;;;4939208;29;20047;-78
2023/06/30 09:17:05;;;;;;;10.75;3.08;;;27.50;55.50;;;;;;4955964;29;20132;-78
2023/06/30 09:19:31;;;;;;;6.90;3.30;;;27.50;55.70;;;;;;4955699;29;20027;-78
2023/06/30 09:21:58;;;;;;;7.93;2.92;;;27.40;55.80;;;;;;4955804;29;20027;-78
2023/06/30 09:24:24;;;;;;;;;;;27.30;55.80;;;;;;4955736;29;20061;-78
2023/06/30 09:26:53;;;;;;;5.15;3.33;;;27.30;56.20;;;;;;4938328;29;19911;-78
2023/06/30 09:29:23;;;;;;;11.50;3.70;;;27.20;55.50;;;;;;4956262;29;20073;-78
2023/06/30 09:31:52;;;;;;;11.57;3.95;;;27.10;55.70;;;;;;4955919;29;20027;-78
2023/06/30 09:34:21;;;;;;;10.13;4.50;;;26.90;56.90;;;;;;4938792;29;20506;-78
2023/06/30 09:36:52;;;;;;;13.93;5.32;;;26.70;58.30;;;;;;4954803;29;20039;-78
2023/06/30 09:39:18;;;;;;;9.32;4.60;;;26.40;60.00;;;;;;4938553;29;20031;-78
2023/06/30 09:41:46;;;;;;;11.80;5.15;;;26.10;61.20;;;;;;4955825;29;20027;-78
2023/06/30 09:44:23;;;;;;;15.70;6.13;;;25.90;63.50;;;;;;4955120;29;20030;-78
2023/06/30 09:46:52;;;;;;;12.90;5.17;;;25.70;65.50;;;;;;4954895;29;20027;-78
2023/06/30 09:49:32;;;;;;;7.80;4.97;;;25.50;66.00;;;;;;4955693;29;20269;-78
2023/06/30 09:52:03;;;;;;;9.68;7.70;;;25.30;67.90;;;;;;4955587;29;20035;-77
2023/06/30 09:54:30;;;;;;;18.40;10.63;;;25.00;70.80;;;;;;4956167;29;20035;-77
2023/06/30 09:57:00;;;;;;;17.95;12.70;;;24.70;74.70;;;;;;4938300;29;20050;-77
2023/06/30 09:59:27;;;;;;;13.30;11.88;;;24.50;79.30;;;;;;4954227;29;20063;-77
2023/06/30 10:01:57;;;;;;;21.73;14.07;;;24.50;81.50;;;;;;4956931;29;20492;-80
2023/06/30 10:04:25;;;;;;;18.90;14.23;;;24.30;84.30;;;;;;4963561;29;20400;-77
2023/06/30 10:06:54;;;;;;;17.73;14.45;;;24.30;85.20;;;;;;4958907;29;20512;-78
2023/06/30 10:09:22;;;;;;;17.52;14.02;;;24.30;87.70;;;;;;4923542;29;20118;-78
2023/06/30 10:11:53;;;;;;;21.35;16.02;;;24.20;87.80;;;;;;4956320;29;20550;-78
2023/06/30 10:14:28;;;;;;;19.17;14.63;;;24.10;90.00;;;;;;4956309;29;20170;-78
2023/06/30 10:17:03;;;;;;;22.70;15.80;;;24.10;89.20;;;;;;4939761;28;20412;-77
2023/06/30 10:19:29;;;;;;;20.38;15.88;;;24.10;90.50;;;;;;4945854;28;20640;-77
2023/06/30 10:21:56;;;;;;;18.95;16.08;;;24.10;90.50;;;;;;4938902;29;20035;-77
2023/06/30 10:24:37;;;;;;;29.83;15.88;;;24.20;90.80;;;;;;4938256;29;20028;-77
2023/06/30 10:27:08;;;;;;;28.20;17.38;;;24.20;90.90;;;;;;4955986;29;20373;-77
2023/06/30 10:29:35;;;;;;;38.08;18.63;;;23.90;91.70;;;;;;4937275;29;20031;-77
2023/06/30 10:32:04;;;;;;;24.10;16.73;;;23.80;92.10;;;;;;4955860;29;20027;-77
2023/06/30 10:34:31;;;;;;;22.05;17.40;;;23.70;92.50;;;;;;4939431;29;20130;-77
2023/06/30 10:36:58;;;;;;;26.05;18.55;;;23.60;93.00;;;;;;4943618;29;20040;-78
2023/06/30 10:39:25;;;;;;;46.75;21.45;;;23.40;93.90;;;;;;4956880;28;20037;-77
2023/06/30 10:41:51;;;;;;;30.40;20.50;;;23.30;94.60;;;;;;4953190;28;20031;-77
2023/06/30 10:44:20;;;;;;;30.87;19.67;;;23.20;95.40;;;;;;4944715;29;20035;-78
2023/06/30 10:47:02;;;;;;;23.80;21.25;;;23.20;96.40;;;;;;4952426;28;20082;-77
2023/06/30 10:49:29;;;;;;;21.30;17.10;;;23.10;97.50;;;;;;4944293;28;20399;-78
2023/06/30 10:51:58;;;;;;;19.98;17.88;;;23.40;96.90;;;;;;4948453;29;20039;-77
2023/06/30 10:54:24;;;;;;;17.15;15.02;;;23.50;96.70;;;;;;4962350;28;20023;-78
2023/06/30 10:56:54;;;;;;;17.70;15.80;;;23.70;96.20;;;;;;4967222;28;20111;-77
2023/06/30 10:59:24;;;;;;;101.07;86.15;;;23.80;96.00;;;;;;4949947;28;20030;-82
2023/06/30 11:02:32;;;;;;;51.63;46.58;;;23.80;94.70;;;;;;4949707;28;20027;-83
2023/06/30 11:05:21;;;;;;;15.40;13.13;;;24.00;94.70;;;;;;4893888;29;20028;-80
2023/06/30 11:07:52;;;;;;;15.02;13.43;;;24.10;94.20;;;;;;4892582;29;20063;-77
2023/06/30 11:10:45;;;;;;;15.88;12.07;;;24.10;94.50;;;;;;4940420;28;20067;-77
2023/06/30 11:13:12;;;;;;;15.85;13.02;;;24.10;93.60;;;;;;4956050;28;20055;-77
2023/06/30 11:15:44;;;;;;;14.68;13.05;;;24.10;94.30;;;;;;4945349;28;20579;-78
2023/06/30 11:18:11;;;;;;;13.85;11.85;;;24.10;94.30;;;;;;4977652;28;20086;-78
2023/06/30 11:20:37;;;;;;;;;;;24.10;94.10;;;;;;4966985;28;20026;-78
2023/06/30 11:23:15;;;;;;;14.45;12.23;;;24.10;94.30;;;;;;4957432;28;19930;-78
2023/06/30 11:25:41;;;;;;;14.52;13.07;;;24.10;94.30;;;;;;4941696;29;20027;-78
2023/06/30 11:28:11;;;;;;;13.67;12.30;;;24.20;94.60;;;;;;4959401;28;20026;-78
2023/06/30 11:30:41;;;;;;;14.80;11.57;;;24.10;94.80;;;;;;4943379;29;20114;-78
2023/06/30 11:33:07;;;;;;;14.70;13.02;;;24.10;94.20;;;;;;4974293;28;20039;-78
2023/06/30 11:35:35;;;;;;;20.73;13.32;;;23.90;94.40;;;;;;4965039;28;20364;-78
2023/06/30 11:38:01;;;;;;;13.57;12.27;;;23.90;94.60;;;;;;4975178;28;20113;-78
2023/06/30 11:40:27;;;;;;;15.35;12.45;;;23.90;94.60;;;;;;4951041;28;20034;-78
2023/06/30 11:42:54;;;;;;;16.90;12.82;;;23.90;94.80;;;;;;4959817;28;20027;-78
2023/06/30 11:45:27;;;;;;;15.88;14.27;;;23.90;94.90;;;;;;4963756;28;20042;-78
2023/06/30 11:47:54;;;;;;;16.27;13.60;;;24.00;95.20;;;;;;4952540;29;20546;-78
2023/06/30 11:50:20;;;;;;;15.98;14.40;;;24.00;95.40;;;;;;4943425;28;20031;-78
2023/06/30 11:52:49;;;;;;;17.52;14.52;;;24.00;95.60;;;;;;4962598;28;20616;-78
2023/06/30 11:55:16;;;;;;;15.95;14.35;;;24.00;95.80;;;;;;4968886;28;20034;-78
2023/06/30 11:57:46;;;;;;;;;;;24.10;95.60;;;;;;4964329;28;20022;-78
2023/06/30 12:00:28;;;;;;;16.85;14.73;;;24.10;95.70;;;;;;4941628;28;20012;-78
2023/06/30 12:03:04;;;;;;;18.05;14.15;;;24.10;95.70;;;;;;4972641;28;20043;-78
2023/06/30 12:05:29;;;;;;;15.68;14.15;;;24.10;95.50;;;;;;4969079;28;20031;-78
2023/06/30 12:07:56;;;;;;;15.53;14.00;;;24.10;95.20;;;;;;4965413;28;20038;-78
2023/06/30 12:10:36;;;;;;;16.38;13.18;;;24.10;95.60;;;;;;4946092;29;20042;-78
2023/06/30 12:13:06;;;;;;;14.65;13.10;;;24.20;95.20;;;;;;4971101;28;20046;-78
2023/06/30 12:15:32;;;;;;;17.55;14.52;;;24.10;95.00;;;;;;4953518;29;20493;-78
2023/06/30 12:17:58;;;;;;;17.37;14.60;;;24.10;94.90;;;;;;4965892;28;20113;-78
2023/06/30 12:20:35;;;;;;;23.27;14.63;;;24.10;95.30;;;;;;4975805;28;20108;-78
2023/06/30 12:23:05;;;;;;;17.33;13.57;;;24.10;95.10;;;;;;4957431;28;20038;-78
2023/06/30 12:25:33;;;;;;;19.45;14.00;;;24.20;95.00;;;;;;4961661;28;20511;-78
2023/06/30 12:28:06;;;;;;;15.73;13.48;;;24.10;95.10;;;;;;4958101;28;20038;-79
2023/06/30 12:30:33;;;;;;;16.90;13.70;;;23.90;95.30;;;;;;4962664;28;20555;-81
2023/06/30 12:33:00;;;;;;;15.57;13.98;;;23.90;95.70;;;;;;4972131;28;20026;-79
2023/06/30 12:35:33;;;;;;;13.77;12.38;;;23.90;95.90;;;;;;4956105;29;20035;-79
2023/06/30 12:38:04;;;;;;;14.35;12.77;;;24.00;95.60;;;;;;4947737;28;20125;-79
2023/06/30 12:40:30;;;;;;;13.70;12.25;;;24.10;95.50;;;;;;4967586;28;20031;-79
2023/06/30 12:42:59;;;;;;;16.52;12.98;;;24.20;95.30;;;;;;4956269;28;20118;-79
2023/06/30 12:45:28;;;;;;;38.83;34.70;;;24.20;95.50;;;;;;4955046;29;20140;-82